sensor_id;sensor_type;location;lat;lon;timestamp;pressure;altitude;pressure_sealevel;temperature;humidity
28312;BME280;15572;48.810;9.148;2023-01-28T00:03:41;98762.31;;;0.13;100.00
28312;BME280;15572;48.810;9.148;2023-01-28T00:08:38;98752.88;;;0.09;100.00
28312;BME280;15572;48.810;9.148;2023-01-28T00:13:34;98739.66;;;0.08;100.00
28312;BME280;15572;48.810;9.148;2023-01-28T00:18:32;98745.75;;;0.10;100.00
28312;BME280;15572;48.810;9.148;2023-01-28T00:23:31;98750.22;;;0.09;100.00
28312;BME280;15572;48.810;9.148;2023-01-28T00:28:28;98749.25;;;0.10;100.00
28312;BME280;15572;48.810;9.148;2023-01-28T00:33:24;98748.25;;;0.11;100.00
28312;BME280;15572;48.810;9.148;2023-01-28T00:38:24;98741.97;;;0.12;100.00
28312;BME280;15572;48.810;9.148;2023-01-28T00:43:21;98731.31;;;0.12;100.00
28312;BME280;15572;48.810;9.148;2023-01-28T00:48:17;98733.13;;;0.12;100.00
28312;BME280;15572;48.810;9.148;2023-01-28T00:53:14;98739.19;;;0.14;100.00
28312;BME280;15572;48.810;9.148;2023-01-28T00:58:12;98732.16;;;0.13;100.00
28312;BME280;15572;48.810;9.148;2023-01-28T01:03:09;98742.81;;;0.13;100.00
28312;BME280;15572;48.810;9.148;2023-01-28T01:08:05;98735.69;;;0.13;100.00
28312;BME280;15572;48.810;9.148;2023-01-28T01:13:02;98741.00;;;0.13;100.00
28312;BME280;15572;48.810;9.148;2023-01-28T01:18:00;98730.84;;;0.18;100.00
28312;BME280;15572;48.810;9.148;2023-01-28T01:22:57;98733.41;;;0.20;100.00
28312;BME280;15572;48.810;9.148;2023-01-28T01:27:53;98737.88;;;0.19;100.00
28312;BME280;15572;48.810;9.148;2023-01-28T01:32:49;98743.31;;;0.18;100.00
28312;BME280;15572;48.810;9.148;2023-01-28T01:37:47;98743.22;;;0.19;100.00
28312;BME280;15572;48.810;9.148;2023-01-28T01:42:44;98750.44;;;0.17;100.00
28312;BME280;15572;48.810;9.148;2023-01-28T01:47:43;98752.41;;;0.15;100.00
28312;BME280;15572;48.810;9.148;2023-01-28T01:52:44;98749.59;;;0.17;100.00
28312;BME280;15572;48.810;9.148;2023-01-28T01:57:43;98748.75;;;0.16;100.00
28312;BME280;15572;48.810;9.148;2023-01-28T02:02:44;98752.41;;;0.15;100.00
28312;BME280;15572;48.810;9.148;2023-01-28T02:07:43;98758.22;;;0.20;100.00
28312;BME280;15572;48.810;9.148;2023-01-28T02:12:44;98757.47;;;0.18;100.00
28312;BME280;15572;48.810;9.148;2023-01-28T02:17:43;98752.25;;;0.17;100.00
28312;BME280;15572;48.810;9.148;2023-01-28T02:23:11;98754.72;;;0.20;100.00
28312;BME280;15572;48.810;9.148;2023-01-28T02:28:22;98761.00;;;0.19;100.00
28312;BME280;15572;48.810;9.148;2023-01-28T02:33:25;98758.59;;;0.16;100.00
28312;BME280;15572;48.810;9.148;2023-01-28T02:38:28;98751.56;;;0.15;100.00
28312;BME280;15572;48.810;9.148;2023-01-28T02:43:32;98760.25;;;0.17;100.00
28312;BME280;15572;48.810;9.148;2023-01-28T02:48:29;98755.19;;;0.14;100.00
28312;BME280;15572;48.810;9.148;2023-01-28T02:53:32;98758.09;;;0.22;100.00
28312;BME280;15572;48.810;9.148;2023-01-28T02:58:43;98762.06;;;0.16;100.00
28312;BME280;15572;48.810;9.148;2023-01-28T03:03:49;98767.06;;;0.21;100.00
28312;BME280;15572;48.810;9.148;2023-01-28T03:08:55;98772.72;;;0.16;100.00
28312;BME280;15572;48.810;9.148;2023-01-28T03:14:13;98776.13;;;0.18;100.00
28312;BME280;15572;48.810;9.148;2023-01-28T03:19:29;98768.25;;;0.17;100.00
28312;BME280;15572;48.810;9.148;2023-01-28T03:24:47;98777.94;;;0.18;100.00
28312;BME280;15572;48.810;9.148;2023-01-28T03:30:08;98773.47;;;0.18;100.00
28312;BME280;15572;48.810;9.148;2023-01-28T03:35:27;98774.56;;;0.16;100.00
28312;BME280;15572;48.810;9.148;2023-01-28T03:40:48;98780.50;;;0.19;100.00
28312;BME280;15572;48.810;9.148;2023-01-28T03:45:45;98784.97;;;0.19;100.00
28312;BME280;15572;48.810;9.148;2023-01-28T03:50:45;98787.13;;;0.14;100.00
28312;BME280;15572;48.810;9.148;2023-01-28T03:55:42;98788.84;;;0.15;100.00
28312;BME280;15572;48.810;9.148;2023-01-28T04:00:40;98785.53;;;0.11;100.00
28312;BME280;15572;48.810;9.148;2023-01-28T04:05:39;98783.72;;;0.12;100.00
28312;BME280;15572;48.810;9.148;2023-01-28T04:10:35;98785.53;;;0.11;100.00
28312;BME280;15572;48.810;9.148;2023-01-28T04:15:32;98789.28;;;0.09;100.00
28312;BME280;15572;48.810;9.148;2023-01-28T04:20:30;98785.03;;;0.06;100.00
28312;BME280;15572;48.810;9.148;2023-01-28T04:25:28;98790.38;;;0.06;100.00
28312;BME280;15572;48.810;9.148;2023-01-28T04:30:25;98792.06;;;0.07;100.00
28312;BME280;15572;48.810;9.148;2023-01-28T04:35:22;98799.00;;;0.10;100.00
28312;BME280;15572;48.810;9.148;2023-01-28T04:40:18;98806.22;;;0.08;100.00
28312;BME280;15572;48.810;9.148;2023-01-28T04:45:16;98814.97;;;0.10;100.00
28312;BME280;15572;48.810;9.148;2023-01-28T04:50:13;98812.06;;;0.13;100.00
28312;BME280;15572;48.810;9.148;2023-01-28T04:55:10;98812.16;;;0.11;100.00
28312;BME280;15572;48.810;9.148;2023-01-28T05:00:09;98815.69;;;0.12;100.00
28312;BME280;15572;48.810;9.148;2023-01-28T05:05:07;98820.03;;;0.13;100.00
28312;BME280;15572;48.810;9.148;2023-01-28T05:10:04;98831.44;;;0.15;100.00
28312;BME280;15572;48.810;9.148;2023-01-28T05:15:01;98832.16;;;0.17;100.00
28312;BME280;15572;48.810;9.148;2023-01-28T05:19:58;98825.88;;;0.18;100.00
28312;BME280;15572;48.810;9.148;2023-01-28T05:24:56;98818.84;;;0.17;100.00
28312;BME280;15572;48.810;9.148;2023-01-28T05:29:52;98826.72;;;0.18;100.00
28312;BME280;15572;48.810;9.148;2023-01-28T05:34:49;98825.75;;;0.19;100.00
28312;BME280;15572;48.810;9.148;2023-01-28T05:39:45;98825.75;;;0.19;100.00
28312;BME280;15572;48.810;9.148;2023-01-28T05:44:43;98819.59;;;0.19;100.00
28312;BME280;15572;48.810;9.148;2023-01-28T05:49:39;98829.50;;;0.17;100.00
28312;BME280;15572;48.810;9.148;2023-01-28T05:54:36;98835.56;;;0.19;100.00
28312;BME280;15572;48.810;9.148;2023-01-28T05:59:32;98837.47;;;0.17;100.00
28312;BME280;15572;48.810;9.148;2023-01-28T06:04:30;98840.16;;;0.17;100.00
28312;BME280;15572;48.810;9.148;2023-01-28T06:09:26;98837.47;;;0.17;100.00
28312;BME280;15572;48.810;9.148;2023-01-28T06:14:23;98842.59;;;0.20;100.00
28312;BME280;15572;48.810;9.148;2023-01-28T06:19:19;98852.28;;;0.21;100.00
28312;BME280;15572;48.810;9.148;2023-01-28T06:24:17;98859.06;;;0.25;100.00
28312;BME280;15572;48.810;9.148;2023-01-28T06:29:14;98880.50;;;0.23;100.00
28312;BME280;15572;48.810;9.148;2023-01-28T06:34:10;98886.16;;;0.19;100.00
28312;BME280;15572;48.810;9.148;2023-01-28T06:39:07;98885.94;;;0.22;100.00
28312;BME280;15572;48.810;9.148;2023-01-28T06:44:05;98887.63;;;0.23;100.00
28312;BME280;15572;48.810;9.148;2023-01-28T06:49:01;98896.38;;;0.25;100.00
28312;BME280;15572;48.810;9.148;2023-01-28T06:53:58;98897.06;;;0.27;100.00
28312;BME280;15572;48.810;9.148;2023-01-28T06:58:55;98902.19;;;0.30;100.00
28312;BME280;15572;48.810;9.148;2023-01-28T07:03:52;98898.44;;;0.32;100.00
28312;BME280;15572;48.810;9.148;2023-01-28T07:08:49;98906.31;;;0.34;100.00
28312;BME280;15572;48.810;9.148;2023-01-28T07:13:45;98911.53;;;0.35;100.00
28312;BME280;15572;48.810;9.148;2023-01-28T07:18:42;98914.22;;;0.35;100.00
28312;BME280;15572;48.810;9.148;2023-01-28T07:23:40;98922.81;;;0.39;100.00
28312;BME280;15572;48.810;9.148;2023-01-28T07:28:36;98922.59;;;0.42;100.00
28312;BME280;15572;48.810;9.148;2023-01-28T07:33:33;98922.69;;;0.40;100.00
28312;BME280;15572;48.810;9.148;2023-01-28T07:38:29;98933.97;;;0.44;100.00
28312;BME280;15572;48.810;9.148;2023-01-28T07:43:27;98926.72;;;0.46;100.00
28312;BME280;15572;48.810;9.148;2023-01-28T07:48:24;98933.50;;;0.50;100.00
28312;BME280;15572;48.810;9.148;2023-01-28T07:53:20;98932.53;;;0.51;100.00
28312;BME280;15572;48.810;9.148;2023-01-28T07:58:16;98937.41;;;0.57;100.00
28312;BME280;15572;48.810;9.148;2023-01-28T08:03:14;98947.84;;;0.60;100.00
28312;BME280;15572;48.810;9.148;2023-01-28T08:08:11;98949.19;;;0.66;100.00
28312;BME280;15572;48.810;9.148;2023-01-28T08:13:08;98949.06;;;0.67;100.00
28312;BME280;15572;48.810;9.148;2023-01-28T08:18:07;98960.34;;;0.71;100.00
28312;BME280;15572;48.810;9.148;2023-01-28T08:23:07;98961.69;;;0.76;100.00
28312;BME280;15572;48.810;9.148;2023-01-28T08:28:04;98959.53;;;0.81;100.00
28312;BME280;15572;48.810;9.148;2023-01-28T08:33:01;98966.84;;;0.91;100.00
28312;BME280;15572;48.810;9.148;2023-01-28T08:37:58;98971.94;;;0.94;100.00
28312;BME280;15572;48.810;9.148;2023-01-28T08:42:56;98963.22;;;1.03;100.00
28312;BME280;15572;48.810;9.148;2023-01-28T08:47:54;98961.78;;;1.10;100.00
28312;BME280;15572;48.810;9.148;2023-01-28T08:52:54;98963.13;;;1.15;100.00
28312;BME280;15572;48.810;9.148;2023-01-28T08:57:51;98965.69;;;1.17;100.00
28312;BME280;15572;48.810;9.148;2023-01-28T09:02:51;98964.84;;;1.27;100.00
28312;BME280;15572;48.810;9.148;2023-01-28T09:07:48;98965.69;;;1.39;100.00
28312;BME280;15572;48.810;9.148;2023-01-28T09:12:45;98964.97;;;1.48;100.00
28312;BME280;15572;48.810;9.148;2023-01-28T09:17:41;98968.59;;;1.58;100.00
28312;BME280;15572;48.810;9.148;2023-01-28T09:22:39;98977.59;;;1.68;100.00
28312;BME280;15572;48.810;9.148;2023-01-28T09:27:35;98986.06;;;1.74;100.00
28312;BME280;15572;48.810;9.148;2023-01-28T09:32:32;98993.97;;;1.64;100.00
28312;BME280;15572;48.810;9.148;2023-01-28T09:37:28;98998.81;;;1.59;100.00
28312;BME280;15572;48.810;9.148;2023-01-28T09:42:41;99000.53;;;1.60;100.00
28312;BME280;15572;48.810;9.148;2023-01-28T09:47:43;99004.03;;;1.72;100.00
28312;BME280;15572;48.810;9.148;2023-01-28T09:52:41;99007.44;;;1.85;100.00
28312;BME280;15572;48.810;9.148;2023-01-28T09:57:44;99008.50;;;1.93;100.00
28312;BME280;15572;48.810;9.148;2023-01-28T10:02:54;99022.00;;;1.92;100.00
28312;BME280;15572;48.810;9.148;2023-01-28T10:08:00;99025.16;;;1.86;100.00
28312;BME280;15572;48.810;9.148;2023-01-28T10:13:13;99015.91;;;1.79;100.00
28312;BME280;15572;48.810;9.148;2023-01-28T10:18:12;99007.91;;;1.79;100.00
28312;BME280;15572;48.810;9.148;2023-01-28T10:23:13;99004.16;;;1.81;100.00
28312;BME280;15572;48.810;9.148;2023-01-28T10:28:17;98991.41;;;1.85;100.00
28312;BME280;15572;48.810;9.148;2023-01-28T10:33:18;99003.78;;;1.86;100.00
28312;BME280;15572;48.810;9.148;2023-01-28T10:38:19;98996.00;;;1.94;100.00
28312;BME280;15572;48.810;9.148;2023-01-28T10:43:19;98995.03;;;1.95;100.00
28312;BME280;15572;48.810;9.148;2023-01-28T10:48:22;98989.34;;;1.88;100.00
28312;BME280;15572;48.810;9.148;2023-01-28T10:53:19;98993.22;;;1.84;100.00
28312;BME280;15572;48.810;9.148;2023-01-28T10:58:21;98992.75;;;1.90;100.00
28312;BME280;15572;48.810;9.148;2023-01-28T11:03:19;98992.25;;;2.07;100.00
28312;BME280;15572;48.810;9.148;2023-01-28T11:08:16;98993.31;;;2.16;100.00
28312;BME280;15572;48.810;9.148;2023-01-28T11:13:16;98995.22;;;2.14;100.00
28312;BME280;15572;48.810;9.148;2023-01-28T11:18:17;98994.25;;;2.15;100.00
28312;BME280;15572;48.810;9.148;2023-01-28T11:23:18;98996.94;;;2.15;100.00
28312;BME280;15572;48.810;9.148;2023-01-28T11:28:18;98997.97;;;2.03;100.00
28312;BME280;15572;48.810;9.148;2023-01-28T11:33:20;99010.47;;;2.02;100.00
28312;BME280;15572;48.810;9.148;2023-01-28T11:38:19;99006.47;;;1.97;100.00
28312;BME280;15572;48.810;9.148;2023-01-28T11:43:16;99000.50;;;1.93;100.00
28312;BME280;15572;48.810;9.148;2023-01-28T11:48:29;99006.94;;;1.91;100.00
28312;BME280;15572;48.810;9.148;2023-01-28T11:53:43;99001.97;;;1.86;100.00
28312;BME280;15572;48.810;9.148;2023-01-28T11:58:52;99006.69;;;1.83;100.00
28312;BME280;15572;48.810;9.148;2023-01-28T12:04:16;99006.84;;;1.81;100.00
28312;BME280;15572;48.810;9.148;2023-01-28T12:09:19;98997.81;;;1.82;100.00
28312;BME280;15572;48.810;9.148;2023-01-28T12:14:25;99007.31;;;1.75;100.00
28312;BME280;15572;48.810;9.148;2023-01-28T12:19:35;99002.56;;;1.67;100.00
28312;BME280;15572;48.810;9.148;2023-01-28T12:24:45;99004.16;;;1.59;100.00
28312;BME280;15572;48.810;9.148;2023-01-28T12:29:51;98999.69;;;1.59;100.00
28312;BME280;15572;48.810;9.148;2023-01-28T12:35:05;99006.69;;;1.60;100.00
28312;BME280;15572;48.810;9.148;2023-01-28T12:40:20;99010.94;;;1.63;100.00
28312;BME280;15572;48.810;9.148;2023-01-28T12:45:24;99001.97;;;1.64;100.00
28312;BME280;15572;48.810;9.148;2023-01-28T12:50:25;98994.69;;;1.66;100.00
28312;BME280;15572;48.810;9.148;2023-01-28T12:55:34;99001.88;;;1.65;100.00
28312;BME280;15572;48.810;9.148;2023-01-28T13:00:34;98995.78;;;1.63;100.00
28312;BME280;15572;48.810;9.148;2023-01-28T13:05:37;98996.03;;;1.49;100.00
28312;BME280;15572;48.810;9.148;2023-01-28T13:10:39;99002.56;;;1.45;100.00
28312;BME280;15572;48.810;9.148;2023-01-28T13:15:38;99000.03;;;1.44;100.00
28312;BME280;15572;48.810;9.148;2023-01-28T13:20:46;98990.44;;;1.41;100.00
28312;BME280;15572;48.810;9.148;2023-01-28T13:25:48;98992.88;;;1.33;100.00
28312;BME280;15572;48.810;9.148;2023-01-28T13:30:47;98989.94;;;1.25;100.00
28312;BME280;15572;48.810;9.148;2023-01-28T13:35:52;99004.22;;;1.24;100.00
28312;BME280;15572;48.810;9.148;2023-01-28T13:40:54;99001.44;;;1.25;100.00
28312;BME280;15572;48.810;9.148;2023-01-28T13:45:57;99008.09;;;1.20;100.00
28312;BME280;15572;48.810;9.148;2023-01-28T13:50:55;99010.19;;;1.16;100.00
28312;BME280;15572;48.810;9.148;2023-01-28T13:55:56;99008.97;;;1.20;100.00
28312;BME280;15572;48.810;9.148;2023-01-28T14:06:42;99012.38;;;1.34;100.00
28312;BME280;15572;48.810;9.148;2023-01-28T14:12:00;99020.28;;;1.46;100.00
28312;BME280;15572;48.810;9.148;2023-01-28T14:17:08;99022.56;;;1.51;100.00
28312;BME280;15572;48.810;9.148;2023-01-28T14:22:16;99034.09;;;1.51;100.00
28312;BME280;15572;48.810;9.148;2023-01-28T14:27:17;99041.25;;;1.51;100.00
28312;BME280;15572;48.810;9.148;2023-01-28T14:32:17;99045.25;;;1.45;100.00
28312;BME280;15572;48.810;9.148;2023-01-28T14:37:17;99046.13;;;1.46;100.00
28312;BME280;15572;48.810;9.148;2023-01-28T14:42:21;99044.53;;;1.43;100.00
28312;BME280;15572;48.810;9.148;2023-01-28T14:47:46;99050.84;;;1.42;100.00
28312;BME280;15572;48.810;9.148;2023-01-28T14:53:06;99057.28;;;1.51;100.00
28312;BME280;15572;48.810;9.148;2023-01-28T14:58:14;99062.97;;;1.46;100.00
28312;BME280;15572;48.810;9.148;2023-01-28T15:03:16;99059.25;;;1.49;100.00
28312;BME280;15572;48.810;9.148;2023-01-28T15:08:21;99065.53;;;1.48;100.00
28312;BME280;15572;48.810;9.148;2023-01-28T15:13:23;99071.09;;;1.45;100.00
28312;BME280;15572;48.810;9.148;2023-01-28T15:18:28;99072.09;;;1.44;100.00
28312;BME280;15572;48.810;9.148;2023-01-28T15:23:28;99086.50;;;1.41;100.00
28312;BME280;15572;48.810;9.148;2023-01-28T15:28:29;99087.59;;;1.39;100.00
28312;BME280;15572;48.810;9.148;2023-01-28T15:33:26;99094.88;;;1.37;100.00
28312;BME280;15572;48.810;9.148;2023-01-28T15:38:25;99093.91;;;1.38;100.00
28312;BME280;15572;48.810;9.148;2023-01-28T15:43:25;99096.94;;;1.33;100.00
28312;BME280;15572;48.810;9.148;2023-01-28T15:48:23;99100.91;;;1.27;100.00
28312;BME280;15572;48.810;9.148;2023-01-28T15:53:21;99101.50;;;1.31;100.00
28312;BME280;15572;48.810;9.148;2023-01-28T15:58:19;99106.25;;;1.27;100.00
28312;BME280;15572;48.810;9.148;2023-01-28T16:03:21;99110.59;;;1.28;100.00
28312;BME280;15572;48.810;9.148;2023-01-28T16:08:25;99119.69;;;1.26;100.00
28312;BME280;15572;48.810;9.148;2023-01-28T16:13:24;99119.66;;;1.15;100.00
28312;BME280;15572;48.810;9.148;2023-01-28T16:18:29;99125.34;;;1.10;100.00
28312;BME280;15572;48.810;9.148;2023-01-28T16:23:30;99126.78;;;1.14;100.00
28312;BME280;15572;48.810;9.148;2023-01-28T16:28:26;99134.19;;;1.11;100.00
28312;BME280;15572;48.810;9.148;2023-01-28T16:33:26;99135.41;;;1.07;100.00
28312;BME280;15572;48.810;9.148;2023-01-28T16:38:23;99140.03;;;1.16;100.00
28312;BME280;15572;48.810;9.148;2023-01-28T16:43:19;99136.22;;;1.07;100.00
28312;BME280;15572;48.810;9.148;2023-01-28T16:48:15;99138.28;;;1.04;100.00
28312;BME280;15572;48.810;9.148;2023-01-28T16:53:28;99137.53;;;1.02;100.00
28312;BME280;15572;48.810;9.148;2023-01-28T16:58:27;99128.56;;;1.03;100.00
28312;BME280;15572;48.810;9.148;2023-01-28T17:03:24;99126.84;;;1.02;100.00
28312;BME280;15572;48.810;9.148;2023-01-28T17:08:22;99137.53;;;1.02;100.00
28312;BME280;15572;48.810;9.148;2023-01-28T17:13:19;99132.94;;;1.04;100.00
28312;BME280;15572;48.810;9.148;2023-01-28T17:18:16;99138.28;;;1.04;100.00
28312;BME280;15572;48.810;9.148;2023-01-28T17:23:14;99136.56;;;1.03;100.00
28312;BME280;15572;48.810;9.148;2023-01-28T17:28:12;99144.56;;;1.03;100.00
28312;BME280;15572;48.810;9.148;2023-01-28T17:33:09;99153.75;;;0.99;100.00
28312;BME280;15572;48.810;9.148;2023-01-28T17:38:05;99145.88;;;0.97;100.00
28312;BME280;15572;48.810;9.148;2023-01-28T17:43:02;99149.53;;;0.96;100.00
28312;BME280;15572;48.810;9.148;2023-01-28T17:47:59;99162.97;;;0.95;100.00
28312;BME280;15572;48.810;9.148;2023-01-28T17:52:56;99167.44;;;0.94;100.00
28312;BME280;15572;48.810;9.148;2023-01-28T17:57:53;99163.69;;;0.97;100.00
28312;BME280;15572;48.810;9.148;2023-01-28T18:02:50;99176.19;;;0.96;100.00
28312;BME280;15572;48.810;9.148;2023-01-28T18:07:48;99169.16;;;0.95;100.00
28312;BME280;15572;48.810;9.148;2023-01-28T18:12:45;99171.91;;;0.94;100.00
28312;BME280;15572;48.810;9.148;2023-01-28T18:17:41;99166.81;;;0.91;100.00
28312;BME280;15572;48.810;9.148;2023-01-28T18:22:38;99172.16;;;0.91;100.00
28312;BME280;15572;48.810;9.148;2023-01-28T18:27:35;99168.41;;;0.93;100.00
28312;BME280;15572;48.810;9.148;2023-01-28T18:32:33;99179.63;;;0.85;100.00
28312;BME280;15572;48.810;9.148;2023-01-28T18:37:29;99176.22;;;0.83;100.00
28312;BME280;15572;48.810;9.148;2023-01-28T18:42:26;99186.13;;;0.81;100.00
28312;BME280;15572;48.810;9.148;2023-01-28T18:47:24;99196.09;;;0.79;100.00
28312;BME280;15572;48.810;9.148;2023-01-28T18:52:20;99187.09;;;0.80;100.00
28312;BME280;15572;48.810;9.148;2023-01-28T18:57:18;99200.44;;;0.80;100.00
28312;BME280;15572;48.810;9.148;2023-01-28T19:02:14;99203.94;;;0.81;100.00
28312;BME280;15572;48.810;9.148;2023-01-28T19:07:12;99208.66;;;0.77;100.00
28312;BME280;15572;48.810;9.148;2023-01-28T19:12:09;99213.13;;;0.77;100.00
28312;BME280;15572;48.810;9.148;2023-01-28T19:17:05;99204.94;;;0.80;100.00
28312;BME280;15572;48.810;9.148;2023-01-28T19:22:02;99207.91;;;0.75;100.00
28312;BME280;15572;48.810;9.148;2023-01-28T19:27:00;99217.09;;;0.71;100.00
28312;BME280;15572;48.810;9.148;2023-01-28T19:31:56;99206.44;;;0.71;100.00
28312;BME280;15572;48.810;9.148;2023-01-28T19:36:52;99218.28;;;0.67;100.00
28312;BME280;15572;48.810;9.148;2023-01-28T19:41:49;99218.63;;;0.63;100.00
28312;BME280;15572;48.810;9.148;2023-01-28T19:46:47;99224.38;;;0.57;100.00
28312;BME280;15572;48.810;9.148;2023-01-28T19:51:43;99210.63;;;0.50;100.00
28312;BME280;15572;48.810;9.148;2023-01-28T19:56:40;99227.59;;;0.49;100.00
28312;BME280;15572;48.810;9.148;2023-01-28T20:01:36;99226.44;;;0.40;100.00
28312;BME280;15572;48.810;9.148;2023-01-28T20:06:34;99216.81;;;0.38;100.00
28312;BME280;15572;48.810;9.148;2023-01-28T20:11:31;99229.19;;;0.39;100.00
28312;BME280;15572;48.810;9.148;2023-01-28T20:16:29;99231.44;;;0.45;100.00
28312;BME280;15572;48.810;9.148;2023-01-28T20:21:26;99228.56;;;0.35;100.00
28312;BME280;15572;48.810;9.148;2023-01-28T20:26:28;99235.19;;;0.30;100.00
28312;BME280;15572;48.810;9.148;2023-01-28T20:31:25;99245.94;;;0.28;100.00
28312;BME280;15572;48.810;9.148;2023-01-28T20:36:21;99245.94;;;0.28;100.00
28312;BME280;15572;48.810;9.148;2023-01-28T20:41:19;99260.72;;;0.32;100.00
28312;BME280;15572;48.810;9.148;2023-01-28T20:46:20;99268.97;;;0.42;100.00
28312;BME280;15572;48.810;9.148;2023-01-28T20:51:18;99288.13;;;0.22;100.00
28312;BME280;15572;48.810;9.148;2023-01-28T20:56:17;99296.44;;;0.17;100.00
28312;BME280;15572;48.810;9.148;2023-01-28T21:01:19;99292.28;;;0.13;100.00
28312;BME280;15572;48.810;9.148;2023-01-28T21:06:17;99279.28;;;0.09;100.00
28312;BME280;15572;48.810;9.148;2023-01-28T21:11:13;99290.25;;;0.04;100.00
28312;BME280;15572;48.810;9.148;2023-01-28T21:16:10;99282.44;;;0.01;100.00
28312;BME280;15572;48.810;9.148;2023-01-28T21:21:10;99291.41;;;0.00;100.00
28312;BME280;15572;48.810;9.148;2023-01-28T21:26:11;99296.09;;;-0.04;100.00
28312;BME280;15572;48.810;9.148;2023-01-28T21:31:10;99282.69;;;-0.02;100.00
28312;BME280;15572;48.810;9.148;2023-01-28T21:36:12;99294.19;;;-0.02;100.00
28312;BME280;15572;48.810;9.148;2023-01-28T21:41:09;99287.25;;;-0.04;100.00
28312;BME280;15572;48.810;9.148;2023-01-28T21:46:06;99286.91;;;-0.12;100.00
28312;BME280;15572;48.810;9.148;2023-01-28T21:51:03;99280.84;;;-0.14;100.00
28312;BME280;15572;48.810;9.148;2023-01-28T21:56:19;99270.94;;;-0.12;100.00
28312;BME280;15572;48.810;9.148;2023-01-28T22:01:16;99274.66;;;-0.15;100.00
28312;BME280;15572;48.810;9.148;2023-01-28T22:06:12;99283.50;;;-0.14;100.00
28312;BME280;15572;48.810;9.148;2023-01-28T22:11:09;99286.47;;;-0.19;100.00
28312;BME280;15572;48.810;9.148;2023-01-28T22:16:07;99288.09;;;-0.16;100.00
28312;BME280;15572;48.810;9.148;2023-01-28T22:21:05;99283.06;;;-0.21;100.00
28312;BME280;15572;48.810;9.148;2023-01-28T22:26:02;99282.09;;;-0.20;100.00
28312;BME280;15572;48.810;9.148;2023-01-28T22:31:04;99274.19;;;-0.21;100.00
28312;BME280;15572;48.810;9.148;2023-01-28T22:36:05;99280.59;;;-0.24;100.00
28312;BME280;15572;48.810;9.148;2023-01-28T22:41:03;99274.44;;;-0.24;100.00
28312;BME280;15572;48.810;9.148;2023-01-28T22:46:02;99280.50;;;-0.22;100.00
28312;BME280;15572;48.810;9.148;2023-01-28T22:51:02;99277.84;;;-0.22;100.00
28312;BME280;15572;48.810;9.148;2023-01-28T22:56:00;99280.38;;;-0.21;100.00
28312;BME280;15572;48.810;9.148;2023-01-28T23:00:57;99290.31;;;-0.23;100.00
28312;BME280;15572;48.810;9.148;2023-01-28T23:05:56;99294.22;;;-0.28;100.00
28312;BME280;15572;48.810;9.148;2023-01-28T23:10:54;99276.63;;;-0.31;100.00
28312;BME280;15572;48.810;9.148;2023-01-28T23:15:55;99296.22;;;-0.32;100.00
28312;BME280;15572;48.810;9.148;2023-01-28T23:21:14;99291.03;;;-0.33;100.00
28312;BME280;15572;48.810;9.148;2023-01-28T23:26:28;99293.13;;;-0.38;100.00
28312;BME280;15572;48.810;9.148;2023-01-28T23:31:26;99277.47;;;-0.43;100.00
28312;BME280;15572;48.810;9.148;2023-01-28T23:36:22;99281.19;;;-0.46;100.00
28312;BME280;15572;48.810;9.148;2023-01-28T23:41:19;99278.72;;;-0.49;100.00
28312;BME280;15572;48.810;9.148;2023-01-28T23:46:15;99280.41;;;-0.48;100.00
28312;BME280;15572;48.810;9.148;2023-01-28T23:51:13;99276.72;;;-0.45;100.00
28312;BME280;15572;48.810;9.148;2023-01-28T23:56:10;99260.44;;;-0.40;100.00
